Bariloche, Argentina

8:51 AM ART on September 01, 2014 (GMT -0300)
S C De Bariloche | Change Station
CLOSE
Current Station
Airport
Location: Bariloche,
Elevation: 2756 ft
Nearby Weather Stations

Elev 2756 ft 41.15 °S, 71.16 °W | Updated 51 minutes ago

Rain
Rain
45 °F
Feels Like 42 °F
N
5
Wind Variable Wind from East

Today
High -- | Low -- °F
--% Chance of Precip.
Yesterday
High -- | Low -- °F
Precip. -- in
8:09 AM 7:20 PM
Waxing Crescent, 40% visible
Pressure 29.77 in
Visibility 5.0 miles
Clouds Few 2000 ft
Mostly Cloudy 4000 ft
Windchill 42 °F
Dew Point 37 °F
Humidity 76%
Rainfall 0.00 in
Snow Depth Not available.
UV 0 out of 12
Pollen Not available.
Air Quality Not available.
Flu Activity Not available.
METAR SAZS 011100Z 09004KT 8000 RA FEW020 BKN040 07/03 Q1008

More Conditions Fewer Conditions

Pressure 29.77 in
Visibility 5.0 miles
Clouds Few 2000 ft
Mostly Cloudy 4000 ft
Windchill 42 °F
Dew Point 37 °F
Humidity 76%
Rainfall 0.00 in
Snow Depth Not available.
UV 0 out of 12
Pollen Not available.
Air Quality Not available.
Flu Activity Not available.
METAR SAZS 011100Z 09004KT 8000 RA FEW020 BKN040 07/03 Q1008

More Conditions Fewer Conditions

10-Day Weather Forecast

Almanac

Astronomy

Sep. 01, 2014 Rise Set
Actual Time 8:09 AM ART 7:20 PM ART
Civil Twilight 7:41 AM ART 7:48 PM ART
Nautical Twilight 7:09 AM ART 8:20 PM ART
Astronomical Twilight 6:37 AM ART 8:52 PM ART
Moon 11:51 AM ART 1:25 AM ART
Length of Visible Light 12h 06m
Length of Day
11h 11m
Tomorrow will be 2m 36s longer.
Waxing Crescent, 40% of the Moon is Illuminated
Today
Waxing Crescent
Sep 2
First Quarter
Sep 8
Full
Sep 15
Last Quarter
Sep 24
New

Yesterday's Extremes

Country Highs Country Lows

Community

WunderPhotos

Upload Photos

1,749,192 photos uploaded!

Nearby

Snow Depth

Not available.

Earthquake Activity

City Distance Mag. Time & Date
No recent earthquake activity has been reported nearby.
Minimum magnitude displayed is 2.5.

Coastal Water Temperatures

Place Temperature
No Stations Reporting

Nearby Weather Stations